createdAt,value
2018-02-08T00:00:30.227Z,7.53
2018-02-08T00:02:56.580Z,7.55
2018-02-08T00:05:22.995Z,7.53
2018-02-08T00:07:49.357Z,7.56
2018-02-08T00:10:15.717Z,7.61
2018-02-08T00:12:42.129Z,7.54
2018-02-08T00:15:08.736Z,7.59
2018-02-08T00:17:35.240Z,7.51
2018-02-08T00:20:01.573Z,7.56
2018-02-08T00:22:40.088Z,7.59
2018-02-08T00:25:06.375Z,7.60
2018-02-08T00:27:32.725Z,7.61
2018-02-08T00:29:59.204Z,7.58
2018-02-08T00:32:25.582Z,7.55
2018-02-08T00:34:51.917Z,7.49
2018-02-08T00:37:18.358Z,7.56
2018-02-08T00:39:44.693Z,7.60
2018-02-08T00:42:11.021Z,7.58
2018-02-08T00:44:37.420Z,7.43
2018-02-08T00:47:03.804Z,7.55
2018-02-08T00:49:30.141Z,7.53
2018-02-08T00:51:56.508Z,7.57
2018-02-08T00:54:22.897Z,7.49
2018-02-08T00:56:49.252Z,7.50
2018-02-08T00:59:15.591Z,7.55
2018-02-08T01:01:42.106Z,7.58
2018-02-08T01:04:08.436Z,7.55
2018-02-08T01:06:34.790Z,7.56
2018-02-08T01:09:01.184Z,7.55
2018-02-08T01:11:27.520Z,7.56
2018-02-08T01:13:53.952Z,7.58
2018-02-08T01:16:20.315Z,7.50
2018-02-08T01:18:46.680Z,7.52
2018-02-08T01:21:13.214Z,7.52
2018-02-08T01:23:39.552Z,7.58
2018-02-08T01:26:05.892Z,7.61
2018-02-08T01:28:32.301Z,7.54
2018-02-08T01:30:58.681Z,7.56
2018-02-08T01:33:25.021Z,7.60
2018-02-08T01:35:51.648Z,7.58
2018-02-08T01:38:18.164Z,7.54
2018-02-08T01:40:44.567Z,7.42
2018-02-08T01:43:10.968Z,7.40
2018-02-08T01:45:37.307Z,7.31
2018-02-08T01:48:03.668Z,7.29
2018-02-08T01:50:30.002Z,7.26
2018-02-08T01:52:56.372Z,7.28
2018-02-08T01:55:22.760Z,7.28
2018-02-08T01:57:49.197Z,7.38
2018-02-08T02:00:15.753Z,7.40
2018-02-08T02:02:42.317Z,7.38
2018-02-08T02:05:08.804Z,7.26
2018-02-08T02:07:35.189Z,6.99
2018-02-08T02:10:01.573Z,6.88
2018-02-08T02:12:27.966Z,6.73
2018-02-08T02:14:54.376Z,6.39
2018-02-08T02:17:20.793Z,6.41
2018-02-08T02:19:47.173Z,6.24
2018-02-08T02:22:13.576Z,6.44
2018-02-08T02:24:40.033Z,6.31
2018-02-08T02:27:06.365Z,6.26
2018-02-08T02:29:32.695Z,6.20
2018-02-08T02:31:59.105Z,6.12
2018-02-08T02:34:25.438Z,6.26
2018-02-08T02:36:51.824Z,6.06
2018-02-08T02:39:18.272Z,6.15
2018-02-08T02:41:44.669Z,5.98
2018-02-08T02:44:10.989Z,5.95
2018-02-08T02:46:37.357Z,5.98
2018-02-08T02:49:03.752Z,6.00
2018-02-08T02:51:30.081Z,6.20
2018-02-08T02:53:56.461Z,6.02
2018-02-08T02:56:23.033Z,5.97
2018-02-08T02:58:49.356Z,6.00
2018-02-08T03:01:15.773Z,6.08
2018-02-08T03:03:49.325Z,6.18
2018-02-08T03:06:15.661Z,6.24
2018-02-08T03:08:42.013Z,6.12
2018-02-08T03:11:08.421Z,6.15
2018-02-08T03:13:34.772Z,6.29
2018-02-08T03:16:01.124Z,6.32
2018-02-08T03:18:27.537Z,6.33
2018-02-08T03:20:53.914Z,6.59
2018-02-08T03:23:20.253Z,6.68
2018-02-08T03:25:46.683Z,6.72
2018-02-08T03:28:13.113Z,6.78
2018-02-08T03:30:41.514Z,6.52
2018-02-08T03:33:08.588Z,6.44
2018-02-08T03:35:35.112Z,6.73
2018-02-08T03:38:01.472Z,6.82
2018-02-08T03:40:27.900Z,6.87
2018-02-08T03:42:54.278Z,6.89
2018-02-08T03:45:20.697Z,6.97
2018-02-08T03:47:47.054Z,6.76
2018-02-08T03:50:13.465Z,6.92
2018-02-08T03:52:39.909Z,7.02
2018-02-08T03:55:06.281Z,7.04
2018-02-08T03:57:32.687Z,7.15
2018-02-08T03:59:59.073Z,7.37
2018-02-08T04:02:25.472Z,7.34
2018-02-08T04:04:51.891Z,7.33
2018-02-08T04:07:18.220Z,7.38
2018-02-08T04:09:44.945Z,7.52
2018-02-08T04:12:11.414Z,7.51
2018-02-08T04:14:37.772Z,7.16
2018-02-08T04:17:04.240Z,6.84
2018-02-08T04:19:30.641Z,7.07
2018-02-08T04:21:57.048Z,7.18
2018-02-08T04:24:23.433Z,7.20
2018-02-08T04:26:49.909Z,7.25
2018-02-08T04:29:16.360Z,6.98
2018-02-08T04:31:42.735Z,7.10
2018-02-08T04:34:09.136Z,6.89
2018-02-08T04:36:35.517Z,7.11
2018-02-08T04:39:13.938Z,7.20
2018-02-08T04:41:52.318Z,7.31
2018-02-08T04:44:30.862Z,7.29
2018-02-08T04:47:07.321Z,7.21
2018-02-08T04:49:33.741Z,7.14
2018-02-08T04:52:00.235Z,7.15
2018-02-08T04:54:26.660Z,7.16
2018-02-08T04:56:53.017Z,7.17
2018-02-08T04:59:19.429Z,7.16
2018-02-08T05:01:45.906Z,7.16
2018-02-08T05:04:12.257Z,7.29
2018-02-08T05:06:38.727Z,7.15
2018-02-08T05:09:05.117Z,7.14
2018-02-08T05:11:31.443Z,7.18
2018-02-08T05:13:57.844Z,7.21
2018-02-08T05:16:24.201Z,7.18
2018-02-08T05:18:50.549Z,7.23
2018-02-08T05:21:16.920Z,7.30
2018-02-08T05:23:43.248Z,7.28
2018-02-08T05:26:09.584Z,7.28
2018-02-08T05:28:36.012Z,7.26
2018-02-08T05:31:02.421Z,7.27
2018-02-08T05:33:28.947Z,7.24
2018-02-08T05:35:55.498Z,7.23
2018-02-08T05:38:21.852Z,7.28
2018-02-08T05:40:48.289Z,7.22
2018-02-08T05:43:14.701Z,7.19
2018-02-08T05:45:41.192Z,7.08
2018-02-08T05:48:07.646Z,7.09
2018-02-08T05:50:34.092Z,7.10
2018-02-08T05:53:00.504Z,6.96
2018-02-08T05:55:26.853Z,7.10
2018-02-08T05:57:53.238Z,7.07
2018-02-08T06:00:19.612Z,7.14
2018-02-08T06:02:46.045Z,7.08
2018-02-08T06:05:12.501Z,7.00
2018-02-08T06:07:38.937Z,7.07
2018-02-08T06:10:05.477Z,7.01
2018-02-08T06:12:31.901Z,6.99
2018-02-08T06:14:58.356Z,6.57
2018-02-08T06:17:24.736Z,6.85
2018-02-08T06:19:51.246Z,6.73
2018-02-08T06:22:17.692Z,6.70
2018-02-08T06:24:44.187Z,6.73
2018-02-08T06:27:10.789Z,6.77
2018-02-08T06:29:37.280Z,6.71
2018-02-08T06:32:03.699Z,6.79
2018-02-08T06:34:30.624Z,6.75
2018-02-08T06:36:57.453Z,6.85
2018-02-08T06:39:24.373Z,6.68
2018-02-08T06:41:51.000Z,6.75
2018-02-08T06:44:17.352Z,6.85
2018-02-08T06:46:43.735Z,6.82
2018-02-08T06:49:10.408Z,6.95
2018-02-08T06:51:36.866Z,7.00
2018-02-08T06:54:03.336Z,7.03
2018-02-08T06:56:29.728Z,7.13
2018-02-08T06:58:56.197Z,7.23
2018-02-08T07:01:22.761Z,7.25
2018-02-08T07:03:49.152Z,7.36
2018-02-08T07:06:15.588Z,7.34
2018-02-08T07:08:42.025Z,7.50
2018-02-08T07:11:08.489Z,7.49
2018-02-08T07:13:34.999Z,7.52
2018-02-08T07:16:01.364Z,7.54
2018-02-08T07:18:28.116Z,7.65
2018-02-08T07:20:54.538Z,7.69
2018-02-08T07:23:21.017Z,7.73
2018-02-08T07:25:47.448Z,7.66
2018-02-08T07:28:13.916Z,7.59
2018-02-08T07:30:40.287Z,7.72
2018-02-08T07:33:06.820Z,7.88
2018-02-08T07:35:33.220Z,7.99
2018-02-08T07:37:59.608Z,8.01
2018-02-08T07:40:26.031Z,8.04
2018-02-08T07:42:52.417Z,8.11
2018-02-08T07:45:18.920Z,8.08
2018-02-08T07:47:45.273Z,8.15
2018-02-08T07:50:12.026Z,8.14
2018-02-08T07:52:39.286Z,8.26
2018-02-08T07:55:06.224Z,8.29
2018-02-08T07:57:32.894Z,8.36
2018-02-08T07:59:59.329Z,8.32
2018-02-08T08:02:25.657Z,8.43
2018-02-08T08:04:52.125Z,8.47
2018-02-08T08:07:18.548Z,8.58
2018-02-08T08:09:44.940Z,8.66
2018-02-08T08:12:11.389Z,8.74
2018-02-08T08:14:37.740Z,8.74
2018-02-08T08:17:04.193Z,8.93
2018-02-08T08:19:30.542Z,8.90
2018-02-08T08:21:56.890Z,8.90
2018-02-08T08:24:23.306Z,9.01
2018-02-08T08:26:49.717Z,9.17
2018-02-08T08:29:16.183Z,9.25
2018-02-08T08:31:42.632Z,9.26
2018-02-08T08:34:09.011Z,9.33
2018-02-08T08:36:35.425Z,9.19
2018-02-08T08:39:01.860Z,9.18
2018-02-08T08:41:28.352Z,9.27
2018-02-08T08:43:54.789Z,9.27
2018-02-08T08:46:21.282Z,9.44
2018-02-08T08:48:47.721Z,9.59
2018-02-08T08:51:14.328Z,9.55
2018-02-08T08:53:40.809Z,9.61
2018-02-08T08:56:07.173Z,9.61
2018-02-08T08:58:33.605Z,9.72
2018-02-08T09:01:00.084Z,9.83
2018-02-08T09:03:26.457Z,9.84
2018-02-08T09:05:52.801Z,9.68
2018-02-08T09:08:19.200Z,9.83
2018-02-08T09:10:45.588Z,9.86
2018-02-08T09:13:12.064Z,9.96
2018-02-08T09:15:38.497Z,9.79
2018-02-08T09:18:05.072Z,9.86
2018-02-08T09:20:31.470Z,10.15
2018-02-08T09:22:57.964Z,10.24
2018-02-08T09:25:24.378Z,10.36
2018-02-08T09:27:50.757Z,10.37
2018-02-08T09:30:17.217Z,10.43
2018-02-08T09:32:43.625Z,10.34
2018-02-08T09:35:09.985Z,10.34
2018-02-08T09:37:36.375Z,10.40
2018-02-08T09:40:02.775Z,10.55
2018-02-08T09:42:29.141Z,10.60
2018-02-08T09:44:55.527Z,10.59
2018-02-08T09:47:21.959Z,10.72
2018-02-08T09:49:48.352Z,10.71
2018-02-08T09:52:14.773Z,10.45
2018-02-08T09:54:41.266Z,10.30
2018-02-08T09:57:07.733Z,10.25
2018-02-08T09:59:34.093Z,10.42
2018-02-08T10:02:00.443Z,10.62
2018-02-08T10:04:26.836Z,10.84
2018-02-08T10:06:53.228Z,10.60
2018-02-08T10:09:19.804Z,10.67
2018-02-08T10:11:46.176Z,10.72
2018-02-08T10:14:12.630Z,10.91
2018-02-08T10:16:38.998Z,10.87
2018-02-08T10:19:05.358Z,11.04
2018-02-08T10:21:31.708Z,11.24
2018-02-08T10:23:58.073Z,11.23
2018-02-08T10:26:24.437Z,11.16
2018-02-08T10:28:51.024Z,11.38
2018-02-08T10:31:17.387Z,11.21
2018-02-08T10:33:44.137Z,11.11
2018-02-08T10:36:10.581Z,11.02
2018-02-08T10:38:37.225Z,11.02
2018-02-08T10:41:03.582Z,11.28
2018-02-08T10:43:29.956Z,11.27
2018-02-08T10:45:56.510Z,11.48
2018-02-08T10:48:23.058Z,11.59
2018-02-08T10:50:49.413Z,11.70
2018-02-08T10:53:15.860Z,11.91
2018-02-08T10:55:42.275Z,12.10
2018-02-08T10:58:08.629Z,12.16
2018-02-08T11:00:34.984Z,12.13
2018-02-08T11:03:01.368Z,12.00
2018-02-08T11:05:27.716Z,11.78
2018-02-08T11:07:54.210Z,12.04
2018-02-08T11:10:20.589Z,12.19
2018-02-08T11:12:47.004Z,12.32
2018-02-08T11:15:13.464Z,12.14
2018-02-08T11:17:39.864Z,11.83
2018-02-08T11:20:06.231Z,11.86
2018-02-08T11:22:32.580Z,12.01
2018-02-08T11:24:58.968Z,11.86
2018-02-08T11:27:25.509Z,12.10
2018-02-08T11:29:51.989Z,12.40
2018-02-08T11:32:18.399Z,12.52
2018-02-08T11:34:45.261Z,12.74
2018-02-08T11:37:12.405Z,12.83
2018-02-08T11:39:38.941Z,12.97
2018-02-08T11:42:05.433Z,12.97
2018-02-08T11:44:31.816Z,13.00
2018-02-08T11:46:58.800Z,13.02
2018-02-08T11:49:26.337Z,13.03
2018-02-08T11:51:53.078Z,13.12
2018-02-08T11:54:19.515Z,13.22
2018-02-08T11:56:46.028Z,13.26
2018-02-08T11:59:12.729Z,13.36
2018-02-08T12:01:39.160Z,13.39
2018-02-08T12:04:05.852Z,13.40
2018-02-08T12:06:32.380Z,13.26
2018-02-08T12:08:58.809Z,12.93
2018-02-08T12:11:25.515Z,13.09
2018-02-08T12:13:51.960Z,13.18
2018-02-08T12:16:18.594Z,13.34
2018-02-08T12:18:45.153Z,13.37
2018-02-08T12:21:12.174Z,13.44
2018-02-08T12:23:38.608Z,13.37
2018-02-08T12:26:05.320Z,13.40
2018-02-08T12:28:31.914Z,13.43
2018-02-08T12:30:58.306Z,13.01
2018-02-08T12:33:24.754Z,12.99
2018-02-08T12:35:51.464Z,12.86
2018-02-08T12:38:18.323Z,12.70
2018-02-08T12:40:45.342Z,12.90
2018-02-08T12:43:12.079Z,12.99
2018-02-08T12:45:38.602Z,13.17
2018-02-08T12:48:05.507Z,13.18
2018-02-08T12:50:32.154Z,13.25
2018-02-08T12:52:58.668Z,13.18
2018-02-08T12:55:25.464Z,12.83
2018-02-08T12:57:52.057Z,12.80
2018-02-08T13:00:18.991Z,12.84
2018-02-08T13:02:45.461Z,12.98
2018-02-08T13:05:12.229Z,13.11
2018-02-08T13:07:38.724Z,13.26
2018-02-08T13:10:05.434Z,13.30
2018-02-08T13:12:31.977Z,13.37
2018-02-08T13:14:58.500Z,13.39
2018-02-08T13:17:25.082Z,13.50
2018-02-08T13:19:51.804Z,13.48
2018-02-08T13:22:18.425Z,13.47
2018-02-08T13:24:45.069Z,13.45
2018-02-08T13:27:11.987Z,13.41
2018-02-08T13:29:39.281Z,13.38
2018-02-08T13:32:07.028Z,13.40
2018-02-08T13:34:34.267Z,13.48
2018-02-08T13:37:01.099Z,13.45
2018-02-08T13:39:33.761Z,13.43
2018-02-08T13:55:30.970Z,13.24
2018-02-08T13:58:03.303Z,13.30
2018-02-08T14:00:34.895Z,13.35
2018-02-08T14:03:01.530Z,13.47
2018-02-08T14:05:27.965Z,13.51
2018-02-08T14:07:55.220Z,13.34
2018-02-08T14:10:21.655Z,13.33
2018-02-08T14:12:48.050Z,13.31
2018-02-08T14:15:14.461Z,13.29
2018-02-08T14:17:40.984Z,13.32
2018-02-08T14:20:07.662Z,13.31
2018-02-08T14:22:34.133Z,13.27
2018-02-08T14:25:00.621Z,13.25
2018-02-08T14:27:26.981Z,13.27
2018-02-08T14:29:53.388Z,13.33
2018-02-08T14:32:19.845Z,13.27
2018-02-08T14:34:46.325Z,13.24
2018-02-08T14:37:12.967Z,13.16
2018-02-08T14:39:39.436Z,13.16
2018-02-08T14:42:05.936Z,13.15
2018-02-08T14:44:32.424Z,13.15
2018-02-08T14:46:58.772Z,13.13
2018-02-08T14:49:25.329Z,13.14
2018-02-08T14:51:51.924Z,13.20
2018-02-08T14:54:18.428Z,13.23
2018-02-08T14:56:44.793Z,13.20
2018-02-08T14:59:11.218Z,13.18
2018-02-08T15:01:37.613Z,13.11
2018-02-08T15:04:04.086Z,13.10
2018-02-08T15:06:30.521Z,13.05
2018-02-08T15:08:56.904Z,13.02
2018-02-08T15:11:23.440Z,12.96
2018-02-08T15:13:49.809Z,12.91
2018-02-08T15:16:16.350Z,12.87
2018-02-08T15:18:42.842Z,12.81
2018-02-08T15:21:09.212Z,12.87
2018-02-08T15:23:35.641Z,12.83
2018-02-08T15:26:02.252Z,12.79
2018-02-08T15:28:28.631Z,12.79
2018-02-08T15:30:56.081Z,12.77
2018-02-08T15:33:22.486Z,12.70
2018-02-08T15:35:49.428Z,12.67
2018-02-08T15:38:16.373Z,12.67
2018-02-08T15:40:42.850Z,12.68
2018-02-08T15:43:09.217Z,12.71
2018-02-08T15:45:35.664Z,12.72
2018-02-08T15:48:02.067Z,12.70
2018-02-08T15:50:28.818Z,12.65
2018-02-08T15:52:55.389Z,12.65
2018-02-08T15:55:21.787Z,12.62
2018-02-08T15:57:48.142Z,12.59
2018-02-08T16:00:14.794Z,12.56
2018-02-08T16:02:41.303Z,12.51
2018-02-08T16:05:07.720Z,12.52
2018-02-08T16:07:34.514Z,12.52
2018-02-08T16:10:01.437Z,12.52
2018-02-08T16:12:27.816Z,12.52
2018-02-08T16:14:54.307Z,12.52
2018-02-08T16:17:20.692Z,12.48
2018-02-08T16:19:47.110Z,12.49
2018-02-08T16:22:13.999Z,12.48
2018-02-08T16:24:40.328Z,12.45
2018-02-08T16:27:06.728Z,12.42
2018-02-08T16:29:33.196Z,12.37
2018-02-08T16:31:59.584Z,12.34
2018-02-08T16:34:26.052Z,12.36
2018-02-08T16:36:52.526Z,12.35
2018-02-08T16:39:18.921Z,12.36
2018-02-08T16:41:45.465Z,12.34
2018-02-08T16:44:12.519Z,12.31
2018-02-08T16:46:38.960Z,12.25
2018-02-08T16:49:05.335Z,12.24
2018-02-08T16:51:33.556Z,12.21
2018-02-08T16:54:00.021Z,12.15
2018-02-08T16:56:26.610Z,12.10
2018-02-08T16:58:53.020Z,12.04
2018-02-08T17:01:20.015Z,11.99
2018-02-08T17:03:46.395Z,11.94
2018-02-08T17:06:12.805Z,11.94
2018-02-08T17:08:39.196Z,11.91
2018-02-08T17:11:05.721Z,11.78
2018-02-08T17:13:32.313Z,11.78
2018-02-08T17:15:58.788Z,11.72
2018-02-08T17:18:26.478Z,11.66
2018-02-08T17:20:53.023Z,11.61
2018-02-08T17:23:19.487Z,11.60
2018-02-08T17:25:45.849Z,11.57
2018-02-08T17:28:13.134Z,11.55
2018-02-08T17:30:39.537Z,11.52
2018-02-08T17:33:05.892Z,11.47
2018-02-08T17:35:32.257Z,11.43
2018-02-08T17:37:59.592Z,11.40
2018-02-08T17:40:25.944Z,11.35
2018-02-08T17:42:54.370Z,11.29
2018-02-08T17:45:21.704Z,11.26
2018-02-08T17:47:48.205Z,11.23
2018-02-08T17:50:14.717Z,11.22
2018-02-08T17:52:41.207Z,11.19
2018-02-08T17:55:07.610Z,11.11
2018-02-08T17:57:34.046Z,10.94
2018-02-08T18:00:00.590Z,11.11
2018-02-08T18:02:26.922Z,11.18
2018-02-08T18:04:53.268Z,11.25
2018-02-08T18:07:20.258Z,11.26
2018-02-08T18:09:46.598Z,11.28
2018-02-08T18:12:13.586Z,11.28
2018-02-08T18:14:39.951Z,11.23
2018-02-08T18:17:06.321Z,11.22
2018-02-08T18:19:34.919Z,11.21
2018-02-08T18:22:01.304Z,11.19
2018-02-08T18:24:27.986Z,11.18
2018-02-08T18:26:54.402Z,11.15
2018-02-08T18:29:21.368Z,11.13
2018-02-08T18:31:47.804Z,11.13
2018-02-08T18:34:16.422Z,11.13
2018-02-08T18:36:42.758Z,11.14
2018-02-08T18:39:09.710Z,11.09
2018-02-08T18:41:36.061Z,11.06
2018-02-08T18:44:02.403Z,11.05
2018-02-08T18:46:28.777Z,11.04
2018-02-08T18:48:55.131Z,11.04
2018-02-08T18:51:21.546Z,10.92
2018-02-08T18:53:48.139Z,10.86
2018-02-08T18:56:14.544Z,10.85
2018-02-08T18:58:40.889Z,10.83
2018-02-08T19:01:07.279Z,10.80
2018-02-08T19:03:33.729Z,10.77
2018-02-08T19:06:00.062Z,10.76
2018-02-08T19:08:26.393Z,10.73
2018-02-08T19:10:52.825Z,10.71
2018-02-08T19:13:19.153Z,10.67
2018-02-08T19:15:45.521Z,10.46
2018-02-08T19:18:11.943Z,10.32
2018-02-08T19:20:38.377Z,10.42
2018-02-08T19:23:04.709Z,10.51
2018-02-08T19:25:31.094Z,10.52
2018-02-08T19:27:58.221Z,10.54
2018-02-08T19:30:24.628Z,10.54
2018-02-08T19:32:51.114Z,10.51
2018-02-08T19:35:17.592Z,10.35
2018-02-08T19:37:44.713Z,10.34
2018-02-08T19:40:11.106Z,10.33
2018-02-08T19:42:37.819Z,10.30
2018-02-08T19:45:04.262Z,10.31
2018-02-08T19:47:31.448Z,10.31
2018-02-08T19:49:57.855Z,10.32
2018-02-08T19:52:24.387Z,10.31
2018-02-08T19:54:51.293Z,10.26
2018-02-08T19:57:17.792Z,10.24
2018-02-08T19:59:44.227Z,10.20
2018-02-08T20:02:10.632Z,10.13
2018-02-08T20:04:37.104Z,10.10
2018-02-08T20:07:03.623Z,10.08
2018-02-08T20:09:30.015Z,10.08
2018-02-08T20:11:57.021Z,10.08
2018-02-08T20:14:29.577Z,10.07
2018-02-08T20:16:55.948Z,9.96
2018-02-08T20:19:22.343Z,9.87
2018-02-08T20:21:48.810Z,9.86
2018-02-08T20:24:15.258Z,9.75
2018-02-08T20:26:41.619Z,9.75
2018-02-08T20:29:08.043Z,9.73
2018-02-08T20:31:34.411Z,9.74
2018-02-08T20:34:01.789Z,9.55
2018-02-08T20:36:28.251Z,9.64
2018-02-08T20:38:54.583Z,9.63
2018-02-08T20:41:21.070Z,9.63
2018-02-08T20:43:47.474Z,9.65
2018-02-08T20:46:14.173Z,9.66
2018-02-08T20:48:40.508Z,9.58
2018-02-08T20:51:07.266Z,9.65
2018-02-08T20:53:33.639Z,9.62
2018-02-08T20:56:00.038Z,9.57
2018-02-08T20:58:26.465Z,9.43
2018-02-08T21:00:52.875Z,9.32
2018-02-08T21:03:19.246Z,9.24
2018-02-08T21:05:45.638Z,9.23
2018-02-08T21:08:11.992Z,9.25
2018-02-08T21:10:38.368Z,9.38
2018-02-08T21:13:07.762Z,9.43
2018-02-08T21:15:34.136Z,9.41
2018-02-08T21:18:00.529Z,9.38
2018-02-08T21:20:26.978Z,9.41
2018-02-08T21:22:54.340Z,9.40
2018-02-08T21:25:21.564Z,9.34
2018-02-08T21:27:48.019Z,9.36
2018-02-08T21:30:14.353Z,9.31
2018-02-08T21:32:40.708Z,9.27
2018-02-08T21:35:07.109Z,9.28
2018-02-08T21:37:33.520Z,9.24
2018-02-08T21:39:59.861Z,9.24
2018-02-08T21:42:26.359Z,9.17
2018-02-08T21:44:52.718Z,9.17
2018-02-08T21:47:19.078Z,9.06
2018-02-08T21:49:45.488Z,9.07
2018-02-08T21:52:11.831Z,8.98
2018-02-08T21:54:38.173Z,8.96
2018-02-08T21:57:04.556Z,8.87
2018-02-08T21:59:30.944Z,8.64
2018-02-08T22:01:57.415Z,8.72
2018-02-08T22:04:23.733Z,8.65
2018-02-08T22:06:50.277Z,8.74
2018-02-08T22:09:16.601Z,8.68
2018-02-08T22:11:42.928Z,8.74
2018-02-08T22:14:09.309Z,8.68
2018-02-08T22:16:35.765Z,8.67
2018-02-08T22:19:02.085Z,8.65
2018-02-08T22:21:28.485Z,8.55
2018-02-08T22:23:54.869Z,8.46
2018-02-08T22:26:21.205Z,8.47
2018-02-08T22:28:47.576Z,8.43
2018-02-08T22:31:13.908Z,8.47
2018-02-08T22:33:40.256Z,8.37
2018-02-08T22:36:06.640Z,8.13
2018-02-08T22:38:32.993Z,8.21
2018-02-08T22:40:59.357Z,8.22
2018-02-08T22:43:25.817Z,8.24
2018-02-08T22:45:52.165Z,8.23
2018-02-08T22:48:18.528Z,8.25
2018-02-08T22:50:44.933Z,8.17
2018-02-08T22:53:11.297Z,8.18
2018-02-08T22:55:37.624Z,8.00
2018-02-08T22:58:04.049Z,8.06
2018-02-08T23:00:30.456Z,7.95
2018-02-08T23:02:56.821Z,7.88
2018-02-08T23:05:23.176Z,7.94
2018-02-08T23:07:49.528Z,7.92
2018-02-08T23:10:16.044Z,7.81
2018-02-08T23:12:42.385Z,7.91
2018-02-08T23:15:08.761Z,7.82
2018-02-08T23:17:35.187Z,7.73
2018-02-08T23:20:01.554Z,7.69
2018-02-08T23:22:27.892Z,7.69
2018-02-08T23:24:54.276Z,7.72
2018-02-08T23:27:20.629Z,7.54
2018-02-08T23:29:46.961Z,7.59
2018-02-08T23:32:13.371Z,7.58
2018-02-08T23:34:39.773Z,7.49
2018-02-08T23:37:06.148Z,7.57
2018-02-08T23:39:32.537Z,7.56
2018-02-08T23:41:58.912Z,7.51
2018-02-08T23:44:25.244Z,7.52
2018-02-08T23:46:51.633Z,7.42
2018-02-08T23:49:18.000Z,7.37
2018-02-08T23:51:44.349Z,7.43
2018-02-08T23:54:10.697Z,7.43
2018-02-08T23:56:37.252Z,7.49
2018-02-08T23:59:03.680Z,7.49
